createdAt,value
2022-11-26T00:01:19.847Z,3.60
2022-11-26T00:03:47.314Z,3.60
2022-11-26T00:06:23.454Z,3.70
2022-11-26T00:08:50.419Z,3.80
2022-11-26T00:11:17.264Z,3.80
2022-11-26T00:13:44.346Z,3.90
2022-11-26T00:16:13.381Z,3.80
2022-11-26T00:18:41.377Z,3.80
2022-11-26T00:21:24.052Z,3.70
2022-11-26T00:23:52.302Z,3.70
2022-11-26T00:26:22.365Z,3.80
2022-11-26T00:29:00.315Z,3.90
2022-11-26T00:31:28.945Z,4.00
2022-11-26T00:33:56.439Z,4.00
2022-11-26T00:36:28.874Z,4.00
2022-11-26T00:38:57.936Z,3.90
2022-11-26T00:41:27.036Z,4.00
2022-11-26T00:43:53.726Z,4.10
2022-11-26T00:46:21.658Z,4.10
2022-11-26T00:48:48.856Z,4.20
2022-11-26T00:51:35.931Z,4.10
2022-11-26T00:54:03.938Z,4.00
2022-11-26T00:56:37.618Z,3.90
2022-11-26T00:59:05.231Z,3.80
2022-11-26T01:01:32.918Z,3.90
2022-11-26T01:03:59.936Z,4.00
2022-11-26T01:06:33.203Z,4.00
2022-11-26T01:09:05.109Z,4.10
2022-11-26T01:11:32.182Z,4.20
2022-11-26T01:13:59.334Z,4.20
2022-11-26T01:16:29.116Z,4.20
2022-11-26T01:18:58.152Z,4.20
2022-11-26T01:21:27.050Z,4.10
2022-11-26T01:23:54.149Z,4.00
2022-11-26T01:26:23.670Z,3.90
2022-11-26T01:28:51.303Z,3.80
2022-11-26T01:31:22.256Z,3.70
2022-11-26T01:33:49.497Z,3.70
2022-11-26T01:36:25.442Z,3.80
2022-11-26T01:38:53.844Z,3.80
2022-11-26T01:41:44.852Z,3.90
2022-11-26T01:44:28.437Z,4.00
2022-11-26T01:46:57.881Z,4.10
2022-11-26T01:49:33.386Z,4.10
2022-11-26T01:52:05.090Z,4.10
2022-11-26T01:54:32.578Z,4.10
2022-11-26T01:57:12.608Z,4.10
2022-11-26T01:59:44.991Z,4.20
2022-11-26T02:02:12.095Z,4.30
2022-11-26T02:04:46.597Z,4.40
2022-11-26T02:07:13.515Z,4.50
2022-11-26T02:09:40.838Z,4.60
2022-11-26T02:12:07.689Z,4.60
2022-11-26T02:14:41.845Z,4.60
2022-11-26T02:17:29.867Z,4.60
2022-11-26T02:20:34.318Z,4.50
2022-11-26T02:23:29.692Z,4.50
2022-11-26T02:26:31.652Z,4.40
2022-11-26T02:29:44.865Z,4.40
2022-11-26T02:32:17.592Z,4.30
2022-11-26T02:35:09.579Z,4.30
2022-11-26T02:37:39.653Z,4.40
2022-11-26T02:40:08.587Z,4.40
2022-11-26T02:42:36.924Z,4.50
2022-11-26T02:45:11.391Z,4.50
2022-11-26T02:47:40.866Z,4.60
2022-11-26T02:50:12.833Z,4.70
2022-11-26T02:52:42.497Z,4.70
2022-11-26T02:55:12.972Z,4.70
2022-11-26T02:57:46.163Z,4.70
2022-11-26T03:00:14.574Z,4.80
2022-11-26T03:02:49.802Z,4.80
2022-11-26T03:05:18.280Z,4.80
2022-11-26T03:07:51.214Z,4.80
2022-11-26T03:10:20.375Z,4.80
2022-11-26T03:12:47.496Z,4.80
2022-11-26T03:15:14.314Z,4.90
2022-11-26T03:17:41.063Z,4.90
2022-11-26T03:20:08.575Z,4.90
2022-11-26T03:22:35.432Z,4.90
2022-11-26T03:25:02.686Z,4.90
2022-11-26T03:27:29.375Z,4.90
2022-11-26T03:29:56.118Z,4.80
2022-11-26T03:32:22.990Z,4.70
2022-11-26T03:34:50.025Z,4.80
2022-11-26T03:37:17.003Z,4.90
2022-11-26T03:39:43.778Z,4.80
2022-11-26T03:42:10.547Z,4.90
2022-11-26T03:44:37.610Z,4.90
2022-11-26T03:47:04.560Z,5.10
2022-11-26T03:49:31.942Z,5.10
2022-11-26T03:51:58.648Z,5.10
2022-11-26T03:54:25.561Z,5.00
2022-11-26T03:56:52.272Z,5.00
2022-11-26T03:59:18.966Z,5.00
2022-11-26T04:01:45.891Z,5.10
2022-11-26T04:04:12.658Z,5.10
2022-11-26T04:06:39.401Z,5.20
2022-11-26T04:09:06.163Z,5.20
2022-11-26T04:11:32.971Z,5.10
2022-11-26T04:14:00.108Z,5.10
2022-11-26T04:16:27.236Z,5.00
2022-11-26T04:18:54.012Z,4.90
2022-11-26T04:21:20.705Z,4.90
2022-11-26T04:23:48.536Z,4.80
2022-11-26T04:26:15.256Z,4.90
2022-11-26T04:28:41.982Z,4.80
2022-11-26T04:31:08.686Z,4.80
2022-11-26T04:33:35.400Z,4.90
2022-11-26T04:36:02.696Z,4.90
2022-11-26T04:38:29.562Z,5.00
2022-11-26T04:40:56.451Z,5.00
2022-11-26T04:43:23.303Z,5.00
2022-11-26T04:45:50.133Z,4.90
2022-11-26T04:48:16.963Z,4.90
2022-11-26T04:50:43.835Z,4.80
2022-11-26T04:53:10.647Z,4.60
2022-11-26T04:55:37.418Z,4.50
2022-11-26T04:58:04.183Z,4.40
2022-11-26T05:00:30.912Z,4.20
2022-11-26T05:02:57.703Z,4.10
2022-11-26T05:05:24.433Z,3.90
2022-11-26T05:07:51.271Z,3.90
2022-11-26T05:10:18.255Z,3.90
2022-11-26T05:12:44.929Z,3.80
2022-11-26T05:15:11.683Z,3.70
2022-11-26T05:17:38.616Z,3.70
2022-11-26T05:20:06.146Z,3.70
2022-11-26T05:22:32.867Z,3.80
2022-11-26T05:24:59.568Z,3.80
2022-11-26T05:27:26.342Z,3.80
2022-11-26T05:29:53.059Z,3.70
2022-11-26T05:32:19.886Z,3.70
2022-11-26T05:34:46.589Z,3.60
2022-11-26T05:37:13.320Z,3.50
2022-11-26T05:39:40.071Z,3.40
2022-11-26T05:42:09.433Z,3.40
2022-11-26T05:44:37.222Z,3.40
2022-11-26T05:47:04.630Z,3.30
2022-11-26T05:49:31.360Z,3.30
2022-11-26T05:51:58.088Z,3.40
2022-11-26T05:54:24.815Z,3.40
2022-11-26T05:56:56.932Z,3.40
2022-11-26T05:59:26.593Z,3.40
2022-11-26T06:01:53.340Z,3.50
2022-11-26T06:04:20.095Z,3.50
2022-11-26T06:06:46.946Z,3.50
2022-11-26T06:09:13.926Z,3.50
2022-11-26T06:11:40.739Z,3.40
2022-11-26T06:14:07.447Z,3.50
2022-11-26T06:16:34.226Z,3.50
2022-11-26T06:19:01.043Z,3.60
2022-11-26T06:21:27.730Z,3.70
2022-11-26T06:23:59.108Z,3.70
2022-11-26T06:26:26.575Z,3.80
2022-11-26T06:28:53.391Z,3.80
2022-11-26T06:31:20.524Z,3.80
2022-11-26T06:33:47.407Z,3.90
2022-11-26T06:36:14.299Z,3.90
2022-11-26T06:38:41.024Z,3.90
2022-11-26T06:41:08.578Z,3.90
2022-11-26T06:43:35.867Z,3.90
2022-11-26T06:46:06.287Z,4.00
2022-11-26T06:48:34.177Z,3.90
2022-11-26T06:51:08.927Z,3.80
2022-11-26T06:53:35.923Z,3.70
2022-11-26T06:56:04.442Z,3.70
2022-11-26T06:58:32.256Z,3.80
2022-11-26T07:00:59.186Z,3.80
2022-11-26T07:03:31.956Z,3.90
2022-11-26T07:06:00.087Z,4.00
2022-11-26T07:08:27.074Z,3.80
2022-11-26T07:10:53.795Z,3.90
2022-11-26T07:13:20.509Z,4.00
2022-11-26T07:15:47.304Z,4.10
2022-11-26T07:18:14.047Z,4.10
2022-11-26T07:20:40.759Z,4.10
2022-11-26T07:23:07.557Z,4.10
2022-11-26T07:25:34.319Z,4.20
2022-11-26T07:28:01.022Z,4.30
2022-11-26T07:30:27.889Z,4.30
2022-11-26T07:32:54.634Z,4.20
2022-11-26T07:35:21.448Z,4.10
2022-11-26T07:37:48.221Z,4.20
2022-11-26T07:40:15.807Z,4.40
2022-11-26T07:42:42.535Z,4.40
2022-11-26T07:45:09.633Z,4.40
2022-11-26T07:47:36.447Z,4.40
2022-11-26T07:50:04.101Z,4.40
2022-11-26T07:52:30.827Z,4.20
2022-11-26T07:54:57.766Z,4.10
2022-11-26T07:57:25.212Z,4.10
2022-11-26T07:59:51.981Z,4.00
2022-11-26T08:02:18.932Z,4.00
2022-11-26T08:04:45.838Z,4.00
2022-11-26T08:07:16.201Z,4.10
2022-11-26T08:09:48.703Z,4.20
2022-11-26T08:12:15.392Z,4.20
2022-11-26T08:14:42.148Z,4.20
2022-11-26T08:17:08.875Z,4.30
2022-11-26T08:19:35.624Z,4.50
2022-11-26T08:22:02.359Z,4.70
2022-11-26T08:24:31.055Z,4.80
2022-11-26T08:27:00.434Z,4.80
2022-11-26T08:29:27.536Z,4.80
2022-11-26T08:31:54.346Z,4.80
2022-11-26T08:34:21.119Z,5.00
2022-11-26T08:36:47.942Z,5.20
2022-11-26T08:39:17.653Z,5.40
2022-11-26T08:41:48.929Z,5.50
2022-11-26T08:44:19.307Z,5.60
2022-11-26T08:46:46.230Z,5.70
2022-11-26T08:49:14.850Z,5.70
2022-11-26T08:51:42.207Z,5.70
2022-11-26T08:54:09.140Z,5.70
2022-11-26T08:56:36.021Z,5.70
2022-11-26T08:59:03.000Z,5.80
2022-11-26T09:01:32.567Z,5.80
2022-11-26T09:04:01.130Z,5.80
2022-11-26T09:06:29.994Z,5.90
2022-11-26T09:09:15.732Z,6.00
2022-11-26T09:12:07.062Z,6.10
2022-11-26T09:14:40.013Z,6.20
2022-11-26T09:17:07.672Z,6.30
2022-11-26T09:19:34.471Z,6.30
2022-11-26T09:22:01.332Z,6.50
2022-11-26T09:24:28.069Z,6.60
2022-11-26T09:26:54.907Z,6.80
2022-11-26T09:29:23.553Z,7.00
2022-11-26T09:34:37.991Z,7.30
2022-11-26T09:37:05.000Z,7.40
2022-11-26T09:39:31.760Z,7.30
2022-11-26T09:42:21.251Z,7.40
2022-11-26T09:45:07.443Z,7.40
2022-11-26T09:47:45.522Z,7.40
2022-11-26T09:50:15.381Z,7.50
2022-11-26T09:52:50.630Z,7.50
2022-11-26T09:55:19.255Z,7.60
2022-11-26T09:58:12.109Z,7.70
2022-11-26T10:00:45.258Z,7.90
2022-11-26T10:03:18.018Z,8.00
2022-11-26T10:05:51.316Z,8.10
2022-11-26T10:08:29.341Z,8.00
2022-11-26T10:11:04.320Z,7.90
2022-11-26T10:13:46.382Z,7.80
2022-11-26T10:16:20.995Z,7.90
2022-11-26T10:19:09.242Z,7.80
2022-11-26T10:24:29.959Z,8.00
2022-11-26T10:26:59.679Z,8.20
2022-11-26T10:29:27.497Z,8.40
2022-11-26T10:31:58.798Z,8.60
2022-11-26T10:34:39.504Z,8.70
2022-11-26T10:37:06.682Z,8.70
2022-11-26T10:39:33.555Z,8.80
2022-11-26T10:42:21.731Z,8.80
2022-11-26T10:44:53.245Z,8.90
2022-11-26T10:47:31.111Z,8.80
2022-11-26T10:50:14.402Z,8.80
2022-11-26T10:52:52.652Z,8.70
2022-11-26T10:55:34.458Z,8.60
2022-11-26T10:58:04.256Z,8.70
2022-11-26T11:00:36.865Z,8.70
2022-11-26T11:03:06.617Z,8.50
2022-11-26T11:05:35.093Z,8.50
2022-11-26T11:08:01.844Z,8.50
2022-11-26T11:10:28.703Z,8.40
2022-11-26T11:13:11.979Z,8.30
2022-11-26T11:15:41.102Z,8.10
2022-11-26T11:18:21.830Z,8.00
2022-11-26T11:20:57.548Z,8.00
2022-11-26T11:24:00.206Z,8.10
2022-11-26T11:26:17.044Z,8.20
2022-11-26T11:28:48.934Z,8.20
2022-11-26T11:31:21.420Z,8.10
2022-11-26T11:33:49.988Z,8.00
2022-11-26T11:36:29.513Z,7.90
2022-11-26T11:38:59.175Z,7.90
2022-11-26T11:41:33.543Z,7.90
2022-11-26T11:44:20.567Z,8.00
2022-11-26T11:47:03.991Z,8.00
2022-11-26T11:49:56.140Z,7.90
2022-11-26T11:52:22.901Z,7.90
2022-11-26T11:54:54.399Z,7.80
2022-11-26T11:58:06.389Z,7.80
2022-11-26T12:00:50.058Z,7.80
2022-11-26T12:03:31.331Z,7.70
2022-11-26T12:06:05.177Z,7.70
2022-11-26T12:09:02.520Z,7.80
2022-11-26T12:11:51.686Z,7.90
2022-11-26T12:14:38.770Z,8.10
2022-11-26T12:17:16.047Z,8.30
2022-11-26T12:19:52.299Z,8.20
2022-11-26T12:22:38.083Z,8.30
2022-11-26T12:25:07.946Z,8.70
2022-11-26T12:27:44.937Z,8.80
2022-11-26T12:30:18.755Z,9.00
2022-11-26T12:32:48.363Z,9.00
2022-11-26T12:35:32.672Z,9.20
2022-11-26T12:38:10.559Z,9.10
2022-11-26T12:40:52.616Z,9.10
2022-11-26T12:43:44.842Z,9.30
2022-11-26T12:46:31.083Z,9.50
2022-11-26T12:49:21.816Z,9.70
2022-11-26T12:52:01.524Z,9.90
2022-11-26T12:54:40.463Z,10.10
2022-11-26T12:57:25.101Z,10.10
2022-11-26T12:59:59.828Z,10.10
2022-11-26T13:02:30.543Z,10.10
2022-11-26T13:04:59.220Z,10.00
2022-11-26T13:08:01.032Z,10.10
2022-11-26T13:10:46.977Z,10.10
2022-11-26T13:13:38.912Z,10.20
2022-11-26T13:16:14.418Z,10.20
2022-11-26T13:18:55.729Z,10.00
2022-11-26T13:21:55.769Z,9.70
2022-11-26T13:24:40.788Z,9.60
2022-11-26T13:27:16.881Z,9.50
2022-11-26T13:30:21.414Z,9.30
2022-11-26T13:33:23.795Z,9.10
2022-11-26T13:35:57.275Z,9.00
2022-11-26T13:38:36.945Z,9.00
2022-11-26T13:41:33.672Z,9.10
2022-11-26T13:44:34.420Z,9.10
2022-11-26T13:47:09.718Z,9.00
2022-11-26T13:49:53.362Z,8.90
2022-11-26T13:52:23.415Z,8.70
2022-11-26T13:54:58.496Z,8.70
2022-11-26T13:57:35.625Z,8.70
2022-11-26T14:00:04.103Z,8.60
2022-11-26T14:02:34.718Z,8.50
2022-11-26T14:05:10.850Z,8.50
2022-11-26T14:07:40.897Z,8.50
2022-11-26T14:10:36.180Z,8.40
2022-11-26T14:13:03.486Z,8.20
2022-11-26T14:15:42.777Z,8.00
2022-11-26T14:18:11.245Z,7.80
2022-11-26T14:20:57.969Z,7.60
2022-11-26T14:23:56.666Z,7.40
2022-11-26T14:26:38.169Z,7.10
2022-11-26T14:29:08.438Z,7.00
2022-11-26T14:31:40.695Z,6.90
2022-11-26T14:34:26.564Z,6.80
2022-11-26T14:36:58.860Z,6.70
2022-11-26T14:39:27.718Z,6.50
2022-11-26T14:42:01.966Z,6.50
2022-11-26T14:44:33.096Z,6.50
2022-11-26T14:47:08.061Z,6.50
2022-11-26T14:49:45.790Z,6.50
2022-11-26T14:52:34.993Z,6.50
2022-11-26T14:55:06.908Z,6.40
2022-11-26T14:57:44.521Z,6.40
2022-11-26T15:00:14.297Z,6.40
2022-11-26T15:02:45.712Z,6.40
2022-11-26T15:05:20.772Z,6.40
2022-11-26T15:07:58.850Z,6.40
2022-11-26T15:10:27.202Z,6.50
2022-11-26T15:12:59.817Z,6.40
2022-11-26T15:15:26.586Z,6.30
2022-11-26T15:18:01.055Z,6.20
2022-11-26T15:20:28.306Z,6.20
2022-11-26T15:22:57.786Z,6.10
2022-11-26T15:25:27.723Z,5.90
2022-11-26T15:28:06.283Z,5.90
2022-11-26T15:30:37.824Z,5.80
2022-11-26T15:33:12.305Z,5.70
2022-11-26T15:35:40.040Z,5.60
2022-11-26T15:38:19.966Z,5.50
2022-11-26T15:40:52.973Z,5.40
2022-11-26T15:43:22.731Z,5.30
2022-11-26T15:45:51.533Z,5.20
2022-11-26T15:48:54.185Z,5.20
2022-11-26T15:51:35.462Z,5.10
2022-11-26T15:54:05.983Z,5.00
2022-11-26T15:56:36.851Z,4.90
2022-11-26T15:59:12.227Z,4.70
2022-11-26T16:01:43.025Z,4.70
2022-11-26T16:04:32.467Z,4.70
2022-11-26T16:07:12.939Z,4.60
2022-11-26T16:09:40.364Z,4.60
2022-11-26T16:12:34.049Z,4.50
2022-11-26T16:15:19.296Z,4.50
2022-11-26T16:17:47.521Z,4.40
2022-11-26T16:20:22.076Z,4.30
2022-11-26T16:22:54.033Z,4.30
2022-11-26T16:25:23.235Z,4.30
2022-11-26T16:28:11.219Z,4.20
2022-11-26T16:30:40.179Z,4.20
2022-11-26T16:33:07.471Z,4.10
2022-11-26T16:35:49.663Z,4.10
2022-11-26T16:38:25.185Z,4.00
2022-11-26T16:40:53.140Z,4.00
2022-11-26T16:43:20.424Z,4.00
2022-11-26T16:45:49.589Z,3.90
2022-11-26T16:48:26.081Z,3.90
2022-11-26T16:50:55.038Z,3.80
2022-11-26T16:53:22.912Z,3.70
2022-11-26T16:55:50.470Z,3.70
2022-11-26T16:58:26.971Z,3.60
2022-11-26T17:00:55.628Z,3.50
2022-11-26T17:03:23.509Z,3.50
2022-11-26T17:05:53.567Z,3.50
2022-11-26T17:08:20.311Z,3.50
2022-11-26T17:10:47.614Z,3.60
2022-11-26T17:13:17.795Z,3.50
2022-11-26T17:15:44.977Z,3.40
2022-11-26T17:18:22.539Z,3.30
2022-11-26T17:20:50.295Z,3.30
2022-11-26T17:23:17.322Z,3.30
2022-11-26T17:25:46.280Z,3.30
2022-11-26T17:28:14.291Z,3.30
2022-11-26T17:30:42.420Z,3.30
2022-11-26T17:33:10.294Z,3.20
2022-11-26T17:35:37.927Z,3.20
2022-11-26T17:38:11.767Z,3.10
2022-11-26T17:40:38.456Z,3.10
2022-11-26T17:43:05.158Z,3.00
2022-11-26T17:45:31.846Z,3.00
2022-11-26T17:47:58.611Z,3.00
2022-11-26T17:50:28.144Z,2.80
2022-11-26T17:52:55.418Z,2.80
2022-11-26T17:55:24.031Z,2.80
2022-11-26T17:57:51.258Z,2.80
2022-11-26T18:00:22.799Z,2.80
2022-11-26T18:02:49.519Z,2.70
2022-11-26T18:05:16.800Z,2.80
2022-11-26T18:07:43.677Z,2.70
2022-11-26T18:10:13.683Z,2.50
2022-11-26T18:12:41.034Z,2.50
2022-11-26T18:15:08.557Z,2.60
2022-11-26T18:17:35.281Z,2.70
2022-11-26T18:20:02.047Z,2.70
2022-11-26T18:22:29.879Z,2.70
2022-11-26T18:24:57.621Z,2.60
2022-11-26T18:27:26.804Z,2.50
2022-11-26T18:29:54.131Z,2.50
2022-11-26T18:32:21.023Z,2.50
2022-11-26T18:34:51.025Z,2.50
2022-11-26T18:37:18.456Z,2.60
2022-11-26T18:39:45.392Z,2.70
2022-11-26T18:45:00.517Z,2.50
2022-11-26T18:47:27.223Z,2.40
2022-11-26T18:49:54.009Z,2.40
2022-11-26T18:52:20.997Z,2.40
2022-11-26T18:54:47.690Z,2.40
2022-11-26T18:57:15.463Z,2.40
2022-11-26T18:59:42.612Z,2.30
2022-11-26T19:02:10.798Z,2.30
2022-11-26T19:04:38.906Z,2.30
2022-11-26T19:07:05.833Z,2.30
2022-11-26T19:09:32.601Z,2.20
2022-11-26T19:11:59.726Z,2.30
2022-11-26T19:14:27.070Z,2.30
2022-11-26T19:16:54.649Z,2.40
2022-11-26T19:19:21.685Z,2.40
2022-11-26T19:21:50.590Z,2.40
2022-11-26T19:24:17.663Z,2.40
2022-11-26T19:26:44.443Z,2.30
2022-11-26T19:29:12.887Z,2.10
2022-11-26T19:31:40.140Z,2.10
2022-11-26T19:34:12.487Z,2.20
2022-11-26T19:36:39.687Z,2.20
2022-11-26T19:39:09.420Z,2.20
2022-11-26T19:41:36.442Z,2.20
2022-11-26T19:44:05.448Z,2.30
2022-11-26T19:46:32.656Z,2.30
2022-11-26T19:48:59.494Z,2.20
2022-11-26T19:51:27.856Z,2.10
2022-11-26T19:53:55.952Z,2.10
2022-11-26T19:56:28.539Z,2.10
2022-11-26T19:58:58.280Z,2.10
2022-11-26T20:01:27.632Z,2.20
2022-11-26T20:03:54.403Z,2.20
2022-11-26T20:06:23.921Z,2.20
2022-11-26T20:08:50.660Z,2.00
2022-11-26T20:11:18.382Z,2.00
2022-11-26T20:13:46.633Z,2.10
2022-11-26T20:16:26.490Z,2.20
2022-11-26T20:18:53.673Z,2.20
2022-11-26T20:21:23.313Z,2.20
2022-11-26T20:23:50.841Z,2.20
2022-11-26T20:26:25.159Z,2.20
2022-11-26T20:28:53.191Z,2.10
2022-11-26T20:31:24.031Z,2.00
2022-11-26T20:33:53.010Z,2.10
2022-11-26T20:36:22.652Z,2.10
2022-11-26T20:38:57.301Z,2.20
2022-11-26T20:41:26.336Z,2.00
2022-11-26T20:43:58.584Z,2.00
2022-11-26T20:46:28.004Z,2.00
2022-11-26T20:48:55.330Z,1.90
2022-11-26T20:51:23.069Z,1.90
2022-11-26T20:53:51.404Z,1.90
2022-11-26T20:56:20.785Z,2.00
2022-11-26T20:58:49.018Z,2.00
2022-11-26T21:01:26.411Z,2.00
2022-11-26T21:03:53.929Z,2.10
2022-11-26T21:06:28.965Z,2.10
2022-11-26T21:08:59.172Z,2.10
2022-11-26T21:11:26.090Z,2.20
2022-11-26T21:13:52.900Z,2.20
2022-11-26T21:16:19.974Z,2.20
2022-11-26T21:18:46.865Z,2.20
2022-11-26T21:21:15.828Z,2.10
2022-11-26T21:23:44.068Z,2.10
2022-11-26T21:26:14.897Z,2.10
2022-11-26T21:28:41.716Z,2.10
2022-11-26T21:31:11.663Z,2.10
2022-11-26T21:33:38.631Z,2.10
2022-11-26T21:36:10.144Z,2.20
2022-11-26T21:38:38.065Z,2.10
2022-11-26T21:41:11.515Z,2.00
2022-11-26T21:43:42.783Z,2.00
2022-11-26T21:46:22.279Z,1.90
2022-11-26T21:48:49.318Z,1.80
2022-11-26T21:51:17.862Z,1.70
2022-11-26T21:53:44.829Z,1.70
2022-11-26T21:56:20.544Z,1.70
2022-11-26T21:58:48.215Z,1.70
2022-11-26T22:01:30.641Z,1.70
2022-11-26T22:04:03.943Z,1.60
2022-11-26T22:06:31.039Z,1.60
2022-11-26T22:08:58.034Z,1.50
2022-11-26T22:11:27.428Z,1.50
2022-11-26T22:13:54.565Z,1.50
2022-11-26T22:16:23.512Z,1.50
2022-11-26T22:18:50.733Z,1.20
2022-11-26T22:21:22.197Z,1.10
2022-11-26T22:23:50.239Z,1.20
2022-11-26T22:26:18.521Z,1.20
2022-11-26T22:28:45.879Z,1.20
2022-11-26T22:31:17.095Z,1.30
2022-11-26T22:33:44.097Z,1.30
2022-11-26T22:36:11.024Z,1.30
2022-11-26T22:38:39.222Z,1.30
2022-11-26T22:41:08.213Z,1.30
2022-11-26T22:43:34.997Z,1.20
2022-11-26T22:46:06.078Z,1.20
2022-11-26T22:48:34.529Z,1.30
2022-11-26T22:51:01.952Z,1.30
2022-11-26T22:53:28.916Z,1.30
2022-11-26T22:55:58.439Z,1.20
2022-11-26T22:58:27.002Z,1.20
2022-11-26T23:00:59.685Z,1.30
2022-11-26T23:03:28.879Z,1.30
2022-11-26T23:05:55.995Z,1.30
2022-11-26T23:08:22.788Z,1.20
2022-11-26T23:10:50.006Z,1.10
2022-11-26T23:13:17.360Z,1.10
2022-11-26T23:15:45.943Z,1.00
2022-11-26T23:18:14.650Z,1.10
2022-11-26T23:20:41.981Z,1.20
2022-11-26T23:23:09.143Z,1.20
2022-11-26T23:25:40.713Z,1.20
2022-11-26T23:28:08.331Z,1.10
2022-11-26T23:30:35.779Z,1.10
2022-11-26T23:33:02.678Z,1.10
2022-11-26T23:35:29.405Z,1.10
2022-11-26T23:37:56.203Z,1.10
2022-11-26T23:40:22.910Z,1.10
2022-11-26T23:42:49.620Z,1.10
2022-11-26T23:45:16.344Z,1.10
2022-11-26T23:47:43.135Z,1.10
2022-11-26T23:50:10.338Z,1.20
2022-11-26T23:52:37.201Z,1.20
2022-11-26T23:55:04.163Z,1.20
2022-11-26T23:57:30.909Z,1.20
2022-11-26T23:59:57.813Z,1.20
